sensor_id;sensor_type;location;lat;lon;timestamp;P1;durP1;ratioP1;P2;durP2;ratioP2
66581;SDS011;53438;48.898;2.308;2022-11-20T00:01:25;4.82;;;1.98;;
66581;SDS011;53438;48.898;2.308;2022-11-20T00:03:52;6.75;;;2.30;;
66581;SDS011;53438;48.898;2.308;2022-11-20T00:06:19;5.40;;;2.40;;
66581;SDS011;53438;48.898;2.308;2022-11-20T00:08:46;7.78;;;2.60;;
66581;SDS011;53438;48.898;2.308;2022-11-20T00:11:12;10.83;;;2.60;;
66581;SDS011;53438;48.898;2.308;2022-11-20T00:13:39;5.72;;;2.17;;
66581;SDS011;53438;48.898;2.308;2022-11-20T00:16:06;6.03;;;2.47;;
66581;SDS011;53438;48.898;2.308;2022-11-20T00:18:32;4.45;;;2.00;;
66581;SDS011;53438;48.898;2.308;2022-11-20T00:21:06;9.63;;;2.40;;
66581;SDS011;53438;48.898;2.308;2022-11-20T00:23:36;7.93;;;2.80;;
66581;SDS011;53438;48.898;2.308;2022-11-20T00:26:05;8.83;;;4.07;;
66581;SDS011;53438;48.898;2.308;2022-11-20T00:28:33;9.07;;;2.55;;
66581;SDS011;53438;48.898;2.308;2022-11-20T00:31:06;7.30;;;2.23;;
66581;SDS011;53438;48.898;2.308;2022-11-20T00:33:35;8.45;;;3.30;;
66581;SDS011;53438;48.898;2.308;2022-11-20T00:36:02;6.78;;;2.70;;
66581;SDS011;53438;48.898;2.308;2022-11-20T00:38:28;7.83;;;2.60;;
66581;SDS011;53438;48.898;2.308;2022-11-20T00:40:58;4.70;;;1.75;;
66581;SDS011;53438;48.898;2.308;2022-11-20T00:43:24;5.85;;;1.90;;
66581;SDS011;53438;48.898;2.308;2022-11-20T00:45:50;6.35;;;2.25;;
66581;SDS011;53438;48.898;2.308;2022-11-20T00:48:20;6.30;;;2.30;;
66581;SDS011;53438;48.898;2.308;2022-11-20T00:50:45;5.68;;;2.13;;
66581;SDS011;53438;48.898;2.308;2022-11-20T00:53:11;9.03;;;2.93;;
66581;SDS011;53438;48.898;2.308;2022-11-20T00:55:36;5.73;;;2.30;;
66581;SDS011;53438;48.898;2.308;2022-11-20T00:58:01;7.10;;;2.30;;
66581;SDS011;53438;48.898;2.308;2022-11-20T04:01:58;4.80;;;1.55;;
66581;SDS011;53438;48.898;2.308;2022-11-20T04:04:24;6.27;;;1.27;;
66581;SDS011;53438;48.898;2.308;2022-11-20T04:06:49;3.60;;;1.23;;
66581;SDS011;53438;48.898;2.308;2022-11-20T04:09:14;4.30;;;1.30;;
66581;SDS011;53438;48.898;2.308;2022-11-20T04:11:40;3.95;;;1.48;;
66581;SDS011;53438;48.898;2.308;2022-11-20T04:14:06;4.73;;;1.97;;
66581;SDS011;53438;48.898;2.308;2022-11-20T04:16:38;4.32;;;1.20;;
66581;SDS011;53438;48.898;2.308;2022-11-20T04:19:05;2.93;;;1.30;;
66581;SDS011;53438;48.898;2.308;2022-11-20T04:21:33;8.30;;;1.95;;
66581;SDS011;53438;48.898;2.308;2022-11-20T04:23:59;4.77;;;1.30;;
66581;SDS011;53438;48.898;2.308;2022-11-20T04:26:25;4.03;;;1.53;;
66581;SDS011;53438;48.898;2.308;2022-11-20T04:28:52;5.55;;;1.63;;
66581;SDS011;53438;48.898;2.308;2022-11-20T04:31:18;5.00;;;1.30;;
66581;SDS011;53438;48.898;2.308;2022-11-20T04:33:45;7.10;;;1.75;;
66581;SDS011;53438;48.898;2.308;2022-11-20T04:36:15;6.03;;;1.80;;
66581;SDS011;53438;48.898;2.308;2022-11-20T04:38:45;3.83;;;1.20;;
66581;SDS011;53438;48.898;2.308;2022-11-20T04:41:13;6.40;;;1.67;;
66581;SDS011;53438;48.898;2.308;2022-11-20T04:43:40;6.07;;;1.48;;
66581;SDS011;53438;48.898;2.308;2022-11-20T04:46:05;4.47;;;1.67;;
66581;SDS011;53438;48.898;2.308;2022-11-20T04:48:30;6.17;;;2.00;;
66581;SDS011;53438;48.898;2.308;2022-11-20T04:50:56;3.90;;;1.50;;
66581;SDS011;53438;48.898;2.308;2022-11-20T04:53:22;4.40;;;1.58;;
66581;SDS011;53438;48.898;2.308;2022-11-20T04:55:47;8.50;;;1.43;;
66581;SDS011;53438;48.898;2.308;2022-11-20T04:58:13;4.63;;;1.20;;
66581;SDS011;53438;48.898;2.308;2022-11-20T05:00:39;6.93;;;1.40;;
66581;SDS011;53438;48.898;2.308;2022-11-20T05:03:04;4.60;;;1.80;;
66581;SDS011;53438;48.898;2.308;2022-11-20T05:05:30;9.18;;;1.55;;
66581;SDS011;53438;48.898;2.308;2022-11-20T05:07:56;5.70;;;1.47;;
66581;SDS011;53438;48.898;2.308;2022-11-20T05:10:22;6.10;;;1.45;;
66581;SDS011;53438;48.898;2.308;2022-11-20T05:12:48;3.67;;;1.57;;
66581;SDS011;53438;48.898;2.308;2022-11-20T05:15:14;3.33;;;1.48;;
66581;SDS011;53438;48.898;2.308;2022-11-20T05:17:39;4.83;;;1.70;;
66581;SDS011;53438;48.898;2.308;2022-11-20T05:20:05;5.33;;;1.40;;
66581;SDS011;53438;48.898;2.308;2022-11-20T05:22:30;4.38;;;1.60;;
66581;SDS011;53438;48.898;2.308;2022-11-20T05:24:56;3.90;;;1.15;;
66581;SDS011;53438;48.898;2.308;2022-11-20T05:27:21;7.10;;;1.43;;
66581;SDS011;53438;48.898;2.308;2022-11-20T05:29:47;2.30;;;1.20;;
66581;SDS011;53438;48.898;2.308;2022-11-20T05:32:12;7.83;;;1.60;;
66581;SDS011;53438;48.898;2.308;2022-11-20T05:34:38;7.60;;;1.40;;
66581;SDS011;53438;48.898;2.308;2022-11-20T05:37:04;7.40;;;1.23;;
66581;SDS011;53438;48.898;2.308;2022-11-20T05:39:30;6.27;;;1.70;;
66581;SDS011;53438;48.898;2.308;2022-11-20T05:41:55;3.88;;;1.73;;
66581;SDS011;53438;48.898;2.308;2022-11-20T05:44:39;5.03;;;1.80;;
66581;SDS011;53438;48.898;2.308;2022-11-20T05:47:05;6.35;;;1.88;;
66581;SDS011;53438;48.898;2.308;2022-11-20T05:49:31;5.65;;;1.58;;
66581;SDS011;53438;48.898;2.308;2022-11-20T05:51:56;2.77;;;1.40;;
66581;SDS011;53438;48.898;2.308;2022-11-20T05:54:22;5.80;;;1.40;;
66581;SDS011;53438;48.898;2.308;2022-11-20T05:56:47;6.40;;;1.37;;
66581;SDS011;53438;48.898;2.308;2022-11-20T05:59:12;4.30;;;1.58;;
66581;SDS011;53438;48.898;2.308;2022-11-20T06:01:38;3.78;;;1.40;;
66581;SDS011;53438;48.898;2.308;2022-11-20T06:04:03;11.30;;;4.03;;
66581;SDS011;53438;48.898;2.308;2022-11-20T06:06:28;5.57;;;1.67;;
66581;SDS011;53438;48.898;2.308;2022-11-20T06:08:54;4.57;;;1.47;;
66581;SDS011;53438;48.898;2.308;2022-11-20T06:11:20;6.95;;;2.03;;
66581;SDS011;53438;48.898;2.308;2022-11-20T06:13:46;8.73;;;1.88;;
66581;SDS011;53438;48.898;2.308;2022-11-20T06:16:12;6.75;;;2.00;;
66581;SDS011;53438;48.898;2.308;2022-11-20T06:18:40;5.22;;;1.90;;
66581;SDS011;53438;48.898;2.308;2022-11-20T06:21:06;6.03;;;1.83;;
66581;SDS011;53438;48.898;2.308;2022-11-20T06:23:42;5.85;;;1.83;;
66581;SDS011;53438;48.898;2.308;2022-11-20T06:26:12;7.13;;;1.63;;
66581;SDS011;53438;48.898;2.308;2022-11-20T06:28:39;5.30;;;2.00;;
66581;SDS011;53438;48.898;2.308;2022-11-20T06:31:05;5.65;;;1.50;;
66581;SDS011;53438;48.898;2.308;2022-11-20T06:33:31;2.50;;;1.20;;
66581;SDS011;53438;48.898;2.308;2022-11-20T06:35:57;3.85;;;1.38;;
66581;SDS011;53438;48.898;2.308;2022-11-20T06:38:27;8.27;;;1.60;;
66581;SDS011;53438;48.898;2.308;2022-11-20T06:40:53;9.93;;;1.90;;
66581;SDS011;53438;48.898;2.308;2022-11-20T06:43:21;5.63;;;1.85;;
66581;SDS011;53438;48.898;2.308;2022-11-20T06:45:51;3.97;;;1.27;;
66581;SDS011;53438;48.898;2.308;2022-11-20T06:48:17;3.93;;;1.40;;
66581;SDS011;53438;48.898;2.308;2022-11-20T06:50:43;4.55;;;1.70;;
66581;SDS011;53438;48.898;2.308;2022-11-20T06:53:08;5.23;;;1.87;;
66581;SDS011;53438;48.898;2.308;2022-11-20T06:55:33;5.57;;;1.60;;
66581;SDS011;53438;48.898;2.308;2022-11-20T06:57:59;4.43;;;1.97;;
66581;SDS011;53438;48.898;2.308;2022-11-20T07:00:24;6.03;;;2.03;;
66581;SDS011;53438;48.898;2.308;2022-11-20T07:02:50;5.43;;;1.80;;
66581;SDS011;53438;48.898;2.308;2022-11-20T07:05:15;5.27;;;1.53;;
66581;SDS011;53438;48.898;2.308;2022-11-20T07:07:41;3.33;;;1.48;;
66581;SDS011;53438;48.898;2.308;2022-11-20T07:10:07;6.13;;;1.90;;
66581;SDS011;53438;48.898;2.308;2022-11-20T07:12:33;10.13;;;2.00;;
66581;SDS011;53438;48.898;2.308;2022-11-20T07:14:58;8.10;;;2.20;;
66581;SDS011;53438;48.898;2.308;2022-11-20T07:17:23;6.73;;;1.40;;
66581;SDS011;53438;48.898;2.308;2022-11-20T07:19:49;6.57;;;1.50;;
66581;SDS011;53438;48.898;2.308;2022-11-20T07:22:14;5.87;;;1.50;;
66581;SDS011;53438;48.898;2.308;2022-11-20T07:24:39;5.50;;;1.60;;
66581;SDS011;53438;48.898;2.308;2022-11-20T07:27:05;4.90;;;1.30;;
66581;SDS011;53438;48.898;2.308;2022-11-20T07:29:30;5.63;;;1.60;;
66581;SDS011;53438;48.898;2.308;2022-11-20T07:31:55;4.53;;;1.70;;
66581;SDS011;53438;48.898;2.308;2022-11-20T07:34:21;6.20;;;1.50;;
66581;SDS011;53438;48.898;2.308;2022-11-20T07:36:47;4.67;;;1.70;;
66581;SDS011;53438;48.898;2.308;2022-11-20T07:39:12;5.63;;;1.65;;
66581;SDS011;53438;48.898;2.308;2022-11-20T07:41:38;4.60;;;1.80;;
66581;SDS011;53438;48.898;2.308;2022-11-20T07:44:04;4.80;;;2.20;;
66581;SDS011;53438;48.898;2.308;2022-11-20T07:46:30;4.13;;;1.37;;
66581;SDS011;53438;48.898;2.308;2022-11-20T07:48:56;4.63;;;1.17;;
66581;SDS011;53438;48.898;2.308;2022-11-20T07:51:21;3.92;;;1.63;;
66581;SDS011;53438;48.898;2.308;2022-11-20T07:53:47;5.93;;;1.53;;
66581;SDS011;53438;48.898;2.308;2022-11-20T07:56:12;6.17;;;1.97;;
66581;SDS011;53438;48.898;2.308;2022-11-20T07:58:39;5.15;;;1.65;;
66581;SDS011;53438;48.898;2.308;2022-11-20T08:01:06;4.23;;;1.63;;
66581;SDS011;53438;48.898;2.308;2022-11-20T08:03:32;2.63;;;1.30;;
66581;SDS011;53438;48.898;2.308;2022-11-20T08:06:00;4.15;;;1.35;;
66581;SDS011;53438;48.898;2.308;2022-11-20T08:08:27;3.77;;;1.43;;
66581;SDS011;53438;48.898;2.308;2022-11-20T08:10:53;3.40;;;1.50;;
66581;SDS011;53438;48.898;2.308;2022-11-20T08:13:39;4.85;;;2.00;;
66581;SDS011;53438;48.898;2.308;2022-11-20T08:16:23;4.30;;;1.60;;
66581;SDS011;53438;48.898;2.308;2022-11-20T08:18:48;6.83;;;2.77;;
66581;SDS011;53438;48.898;2.308;2022-11-20T08:21:14;7.82;;;2.00;;
66581;SDS011;53438;48.898;2.308;2022-11-20T08:23:40;6.17;;;2.80;;
66581;SDS011;53438;48.898;2.308;2022-11-20T08:26:05;6.27;;;2.17;;
66581;SDS011;53438;48.898;2.308;2022-11-20T08:28:30;10.20;;;2.97;;
66581;SDS011;53438;48.898;2.308;2022-11-20T08:30:59;4.97;;;1.80;;
66581;SDS011;53438;48.898;2.308;2022-11-20T08:33:26;3.30;;;1.53;;
66581;SDS011;53438;48.898;2.308;2022-11-20T08:35:51;5.30;;;1.88;;
66581;SDS011;53438;48.898;2.308;2022-11-20T08:38:18;5.73;;;2.10;;
66581;SDS011;53438;48.898;2.308;2022-11-20T08:40:43;5.15;;;2.30;;
66581;SDS011;53438;48.898;2.308;2022-11-20T08:43:31;3.58;;;1.50;;
66581;SDS011;53438;48.898;2.308;2022-11-20T08:45:58;5.30;;;2.00;;
66581;SDS011;53438;48.898;2.308;2022-11-20T08:48:23;5.17;;;1.70;;
66581;SDS011;53438;48.898;2.308;2022-11-20T08:50:49;7.97;;;2.13;;
66581;SDS011;53438;48.898;2.308;2022-11-20T08:53:14;3.63;;;1.87;;
66581;SDS011;53438;48.898;2.308;2022-11-20T08:55:39;9.93;;;3.20;;
66581;SDS011;53438;48.898;2.308;2022-11-20T08:58:05;9.77;;;2.45;;
66581;SDS011;53438;48.898;2.308;2022-11-20T09:00:32;9.93;;;3.33;;
66581;SDS011;53438;48.898;2.308;2022-11-20T09:02:58;8.73;;;2.10;;
66581;SDS011;53438;48.898;2.308;2022-11-20T09:05:24;8.32;;;3.25;;
66581;SDS011;53438;48.898;2.308;2022-11-20T09:07:49;6.03;;;2.83;;
66581;SDS011;53438;48.898;2.308;2022-11-20T09:10:15;7.20;;;2.43;;
66581;SDS011;53438;48.898;2.308;2022-11-20T09:12:40;5.13;;;2.10;;
66581;SDS011;53438;48.898;2.308;2022-11-20T09:15:06;5.43;;;2.70;;
66581;SDS011;53438;48.898;2.308;2022-11-20T09:17:32;5.85;;;2.63;;
66581;SDS011;53438;48.898;2.308;2022-11-20T09:19:57;4.33;;;2.37;;
66581;SDS011;53438;48.898;2.308;2022-11-20T09:22:23;6.07;;;2.15;;
66581;SDS011;53438;48.898;2.308;2022-11-20T09:24:49;7.30;;;2.70;;
66581;SDS011;53438;48.898;2.308;2022-11-20T09:27:14;6.70;;;2.50;;
66581;SDS011;53438;48.898;2.308;2022-11-20T09:29:39;6.90;;;2.60;;
66581;SDS011;53438;48.898;2.308;2022-11-20T09:32:05;6.83;;;2.90;;
66581;SDS011;53438;48.898;2.308;2022-11-20T09:34:30;8.32;;;3.20;;
66581;SDS011;53438;48.898;2.308;2022-11-20T09:36:56;7.30;;;2.87;;
66581;SDS011;53438;48.898;2.308;2022-11-20T09:39:21;7.53;;;3.03;;
66581;SDS011;53438;48.898;2.308;2022-11-20T09:41:51;10.07;;;3.10;;
66581;SDS011;53438;48.898;2.308;2022-11-20T09:44:40;7.60;;;3.00;;
66581;SDS011;53438;48.898;2.308;2022-11-20T09:47:46;10.38;;;4.22;;
66581;SDS011;53438;48.898;2.308;2022-11-20T09:50:23;9.70;;;3.70;;
66581;SDS011;53438;48.898;2.308;2022-11-20T09:55:36;6.97;;;2.90;;
66581;SDS011;53438;48.898;2.308;2022-11-20T09:58:02;7.90;;;3.13;;
66581;SDS011;53438;48.898;2.308;2022-11-20T10:00:31;8.38;;;3.15;;
66581;SDS011;53438;48.898;2.308;2022-11-20T10:05:40;7.57;;;3.40;;
66581;SDS011;53438;48.898;2.308;2022-11-20T10:08:24;8.10;;;3.42;;
66581;SDS011;53438;48.898;2.308;2022-11-20T10:24:41;6.22;;;2.92;;
66581;SDS011;53438;48.898;2.308;2022-11-20T10:27:20;6.78;;;3.45;;
66581;SDS011;53438;48.898;2.308;2022-11-20T10:30:24;4.50;;;2.60;;
66581;SDS011;53438;48.898;2.308;2022-11-20T10:32:59;8.57;;;3.40;;
66581;SDS011;53438;48.898;2.308;2022-11-20T10:35:34;8.52;;;3.00;;
66581;SDS011;53438;48.898;2.308;2022-11-20T10:38:05;5.72;;;2.85;;
66581;SDS011;53438;48.898;2.308;2022-11-20T10:40:38;3.25;;;2.40;;
66581;SDS011;53438;48.898;2.308;2022-11-20T10:48:26;4.63;;;2.00;;
66581;SDS011;53438;48.898;2.308;2022-11-20T10:51:02;7.13;;;2.42;;
66581;SDS011;53438;48.898;2.308;2022-11-20T10:53:42;6.32;;;2.40;;
66581;SDS011;53438;48.898;2.308;2022-11-20T11:01:18;7.05;;;2.78;;
66581;SDS011;53438;48.898;2.308;2022-11-20T11:03:48;5.57;;;2.40;;
66581;SDS011;53438;48.898;2.308;2022-11-20T11:08:58;6.33;;;2.17;;
66581;SDS011;53438;48.898;2.308;2022-11-20T11:11:31;5.45;;;2.10;;
66581;SDS011;53438;48.898;2.308;2022-11-20T11:14:14;4.22;;;2.08;;
66581;SDS011;53438;48.898;2.308;2022-11-20T11:19:19;6.60;;;2.25;;
66581;SDS011;53438;48.898;2.308;2022-11-20T11:22:02;5.70;;;2.50;;
66581;SDS011;53438;48.898;2.308;2022-11-20T11:24:35;4.40;;;2.20;;
66581;SDS011;53438;48.898;2.308;2022-11-20T11:27:02;5.47;;;2.30;;
66581;SDS011;53438;48.898;2.308;2022-11-20T11:29:35;4.25;;;2.15;;
66581;SDS011;53438;48.898;2.308;2022-11-20T11:32:19;5.97;;;3.17;;
66581;SDS011;53438;48.898;2.308;2022-11-20T11:35:05;6.63;;;1.80;;
66581;SDS011;53438;48.898;2.308;2022-11-20T11:37:37;3.60;;;2.08;;
66581;SDS011;53438;48.898;2.308;2022-11-20T11:40:04;3.08;;;1.65;;
66581;SDS011;53438;48.898;2.308;2022-11-20T11:42:31;4.73;;;1.13;;
66581;SDS011;53438;48.898;2.308;2022-11-20T11:44:59;2.40;;;1.20;;
66581;SDS011;53438;48.898;2.308;2022-11-20T11:50:08;2.22;;;1.10;;
66581;SDS011;53438;48.898;2.308;2022-11-20T11:52:50;2.65;;;1.45;;
66581;SDS011;53438;48.898;2.308;2022-11-20T11:55:41;4.07;;;1.27;;
66581;SDS011;53438;48.898;2.308;2022-11-20T12:01:50;2.72;;;1.05;;
66581;SDS011;53438;48.898;2.308;2022-11-20T12:06:51;2.90;;;1.10;;
66581;SDS011;53438;48.898;2.308;2022-11-20T12:09:37;2.47;;;1.37;;
66581;SDS011;53438;48.898;2.308;2022-11-20T12:12:11;2.00;;;1.10;;
66581;SDS011;53438;48.898;2.308;2022-11-20T12:14:43;1.90;;;1.20;;
66581;SDS011;53438;48.898;2.308;2022-11-20T12:17:12;2.67;;;1.05;;
66581;SDS011;53438;48.898;2.308;2022-11-20T12:19:38;3.45;;;1.25;;
66581;SDS011;53438;48.898;2.308;2022-11-20T12:22:09;3.73;;;1.40;;
66581;SDS011;53438;48.898;2.308;2022-11-20T12:24:49;2.65;;;1.80;;
66581;SDS011;53438;48.898;2.308;2022-11-20T12:50:59;5.30;;;1.57;;
66581;SDS011;53438;48.898;2.308;2022-11-20T12:53:06;3.35;;;1.73;;
66581;SDS011;53438;48.898;2.308;2022-11-20T13:01:24;7.03;;;2.17;;
66581;SDS011;53438;48.898;2.308;2022-11-20T13:04:12;7.33;;;2.53;;
66581;SDS011;53438;48.898;2.308;2022-11-20T13:06:58;7.35;;;2.40;;
66581;SDS011;53438;48.898;2.308;2022-11-20T13:09:26;4.85;;;2.83;;
66581;SDS011;53438;48.898;2.308;2022-11-20T13:12:06;5.28;;;2.72;;
66581;SDS011;53438;48.898;2.308;2022-11-20T13:14:45;4.93;;;2.80;;
66581;SDS011;53438;48.898;2.308;2022-11-20T13:17:20;4.37;;;2.53;;
66581;SDS011;53438;48.898;2.308;2022-11-20T13:19:54;4.35;;;2.33;;
66581;SDS011;53438;48.898;2.308;2022-11-20T13:22:24;6.68;;;1.90;;
66581;SDS011;53438;48.898;2.308;2022-11-20T13:24:53;6.22;;;2.38;;
66581;SDS011;53438;48.898;2.308;2022-11-20T13:27:20;6.77;;;3.10;;
66581;SDS011;53438;48.898;2.308;2022-11-20T13:30:02;7.65;;;3.53;;
66581;SDS011;53438;48.898;2.308;2022-11-20T13:32:47;6.35;;;3.30;;
66581;SDS011;53438;48.898;2.308;2022-11-20T13:35:23;7.88;;;3.13;;
66581;SDS011;53438;48.898;2.308;2022-11-20T13:38:01;7.77;;;2.30;;
66581;SDS011;53438;48.898;2.308;2022-11-20T13:40:32;5.63;;;2.58;;
66581;SDS011;53438;48.898;2.308;2022-11-20T13:43:04;8.52;;;2.40;;
66581;SDS011;53438;48.898;2.308;2022-11-20T13:45:35;4.38;;;2.08;;
66581;SDS011;53438;48.898;2.308;2022-11-20T13:48:02;5.20;;;2.33;;
66581;SDS011;53438;48.898;2.308;2022-11-20T13:53:07;5.68;;;2.00;;
66581;SDS011;53438;48.898;2.308;2022-11-20T13:55:49;5.70;;;2.40;;
66581;SDS011;53438;48.898;2.308;2022-11-20T14:01:17;6.47;;;2.47;;
66581;SDS011;53438;48.898;2.308;2022-11-20T14:03:46;7.97;;;2.88;;
66581;SDS011;53438;48.898;2.308;2022-11-20T14:06:20;7.68;;;2.50;;
66581;SDS011;53438;48.898;2.308;2022-11-20T14:08:52;6.43;;;2.43;;
66581;SDS011;53438;48.898;2.308;2022-11-20T14:11:22;5.63;;;2.38;;
66581;SDS011;53438;48.898;2.308;2022-11-20T14:16:33;6.90;;;2.47;;
66581;SDS011;53438;48.898;2.308;2022-11-20T14:24:35;8.30;;;2.67;;
66581;SDS011;53438;48.898;2.308;2022-11-20T14:27:00;8.37;;;2.80;;
66581;SDS011;53438;48.898;2.308;2022-11-20T14:29:28;6.90;;;2.35;;
66581;SDS011;53438;48.898;2.308;2022-11-20T14:32:02;6.88;;;2.38;;
66581;SDS011;53438;48.898;2.308;2022-11-20T14:34:29;11.53;;;2.70;;
66581;SDS011;53438;48.898;2.308;2022-11-20T14:37:00;12.02;;;3.47;;
66581;SDS011;53438;48.898;2.308;2022-11-20T14:39:32;12.82;;;3.08;;
66581;SDS011;53438;48.898;2.308;2022-11-20T14:42:01;11.32;;;2.90;;
66581;SDS011;53438;48.898;2.308;2022-11-20T14:44:31;8.02;;;2.47;;
66581;SDS011;53438;48.898;2.308;2022-11-20T14:46:59;10.90;;;2.20;;
66581;SDS011;53438;48.898;2.308;2022-11-20T14:49:25;9.05;;;2.30;;
66581;SDS011;53438;48.898;2.308;2022-11-20T14:52:11;11.93;;;2.90;;
66581;SDS011;53438;48.898;2.308;2022-11-20T14:54:48;7.90;;;2.97;;
66581;SDS011;53438;48.898;2.308;2022-11-20T15:02:43;15.45;;;3.95;;
66581;SDS011;53438;48.898;2.308;2022-11-20T15:05:10;12.68;;;3.58;;
66581;SDS011;53438;48.898;2.308;2022-11-20T15:07:36;8.35;;;3.17;;
66581;SDS011;53438;48.898;2.308;2022-11-20T15:10:11;14.77;;;2.72;;
66581;SDS011;53438;48.898;2.308;2022-11-20T15:12:40;8.27;;;2.65;;
66581;SDS011;53438;48.898;2.308;2022-11-20T15:15:11;13.73;;;2.97;;
66581;SDS011;53438;48.898;2.308;2022-11-20T15:17:40;9.65;;;3.25;;
66581;SDS011;53438;48.898;2.308;2022-11-20T15:20:10;12.53;;;3.77;;
66581;SDS011;53438;48.898;2.308;2022-11-20T15:22:38;17.85;;;3.83;;
66581;SDS011;53438;48.898;2.308;2022-11-20T15:25:13;7.77;;;2.80;;
66581;SDS011;53438;48.898;2.308;2022-11-20T15:27:41;9.18;;;3.10;;
66581;SDS011;53438;48.898;2.308;2022-11-20T15:30:18;10.07;;;2.67;;
66581;SDS011;53438;48.898;2.308;2022-11-20T15:32:44;10.80;;;2.38;;
66581;SDS011;53438;48.898;2.308;2022-11-20T15:35:11;13.37;;;2.80;;
66581;SDS011;53438;48.898;2.308;2022-11-20T15:37:37;13.50;;;3.30;;
66581;SDS011;53438;48.898;2.308;2022-11-20T15:40:03;15.98;;;3.70;;
66581;SDS011;53438;48.898;2.308;2022-11-20T15:42:30;9.63;;;2.00;;
66581;SDS011;53438;48.898;2.308;2022-11-20T15:44:55;12.73;;;3.17;;
66581;SDS011;53438;48.898;2.308;2022-11-20T15:47:21;11.37;;;3.03;;
66581;SDS011;53438;48.898;2.308;2022-11-20T15:49:52;11.80;;;2.80;;
66581;SDS011;53438;48.898;2.308;2022-11-20T15:52:17;12.55;;;1.83;;
66581;SDS011;53438;48.898;2.308;2022-11-20T15:54:42;11.60;;;2.17;;
66581;SDS011;53438;48.898;2.308;2022-11-20T15:57:08;7.40;;;1.50;;
66581;SDS011;53438;48.898;2.308;2022-11-20T15:59:33;6.30;;;1.40;;
66581;SDS011;53438;48.898;2.308;2022-11-20T16:02:01;9.90;;;1.80;;
66581;SDS011;53438;48.898;2.308;2022-11-20T16:04:27;5.63;;;1.20;;
66581;SDS011;53438;48.898;2.308;2022-11-20T16:06:52;9.37;;;1.83;;
66581;SDS011;53438;48.898;2.308;2022-11-20T16:09:18;7.77;;;1.30;;
66581;SDS011;53438;48.898;2.308;2022-11-20T16:11:43;4.00;;;1.20;;
66581;SDS011;53438;48.898;2.308;2022-11-20T16:14:09;6.47;;;1.15;;
66581;SDS011;53438;48.898;2.308;2022-11-20T16:16:54;5.33;;;2.03;;
66581;SDS011;53438;48.898;2.308;2022-11-20T16:19:20;8.10;;;1.80;;
66581;SDS011;53438;48.898;2.308;2022-11-20T16:21:45;38.80;;;13.77;;
66581;SDS011;53438;48.898;2.308;2022-11-20T16:24:11;21.67;;;8.70;;
66581;SDS011;53438;48.898;2.308;2022-11-20T16:26:38;10.50;;;2.60;;
66581;SDS011;53438;48.898;2.308;2022-11-20T16:29:04;13.00;;;3.80;;
66581;SDS011;53438;48.898;2.308;2022-11-20T16:31:31;7.77;;;1.27;;
66581;SDS011;53438;48.898;2.308;2022-11-20T16:33:58;8.88;;;1.60;;
66581;SDS011;53438;48.898;2.308;2022-11-20T16:36:25;7.65;;;2.25;;
66581;SDS011;53438;48.898;2.308;2022-11-20T16:38:52;6.88;;;1.15;;
66581;SDS011;53438;48.898;2.308;2022-11-20T16:41:19;7.22;;;1.15;;
66581;SDS011;53438;48.898;2.308;2022-11-20T16:43:45;9.63;;;2.63;;
66581;SDS011;53438;48.898;2.308;2022-11-20T16:46:16;6.60;;;2.10;;
66581;SDS011;53438;48.898;2.308;2022-11-20T16:48:44;8.20;;;1.70;;
66581;SDS011;53438;48.898;2.308;2022-11-20T16:51:10;7.57;;;1.80;;
66581;SDS011;53438;48.898;2.308;2022-11-20T16:53:36;6.60;;;1.38;;
66581;SDS011;53438;48.898;2.308;2022-11-20T16:56:09;8.60;;;2.28;;
66581;SDS011;53438;48.898;2.308;2022-11-20T16:58:40;10.13;;;2.17;;
66581;SDS011;53438;48.898;2.308;2022-11-20T17:01:09;7.97;;;2.83;;
66581;SDS011;53438;48.898;2.308;2022-11-20T17:03:37;8.15;;;2.40;;
66581;SDS011;53438;48.898;2.308;2022-11-20T17:08:36;13.55;;;4.00;;
66581;SDS011;53438;48.898;2.308;2022-11-20T17:11:06;13.53;;;3.67;;
66581;SDS011;53438;48.898;2.308;2022-11-20T17:13:32;13.95;;;2.28;;
66581;SDS011;53438;48.898;2.308;2022-11-20T17:16:01;7.20;;;2.00;;
66581;SDS011;53438;48.898;2.308;2022-11-20T17:18:28;8.15;;;3.17;;
66581;SDS011;53438;48.898;2.308;2022-11-20T17:20:53;9.48;;;3.15;;
66581;SDS011;53438;48.898;2.308;2022-11-20T17:23:19;10.63;;;3.30;;
66581;SDS011;53438;48.898;2.308;2022-11-20T17:25:44;7.07;;;2.20;;
66581;SDS011;53438;48.898;2.308;2022-11-20T17:28:09;7.27;;;2.40;;
66581;SDS011;53438;48.898;2.308;2022-11-20T17:30:35;9.23;;;2.37;;
66581;SDS011;53438;48.898;2.308;2022-11-20T17:33:00;7.37;;;2.33;;
66581;SDS011;53438;48.898;2.308;2022-11-20T17:35:26;10.80;;;2.17;;
66581;SDS011;53438;48.898;2.308;2022-11-20T17:37:51;13.70;;;2.67;;
66581;SDS011;53438;48.898;2.308;2022-11-20T17:40:17;9.77;;;2.83;;
66581;SDS011;53438;48.898;2.308;2022-11-20T17:42:43;11.38;;;4.07;;
66581;SDS011;53438;48.898;2.308;2022-11-20T17:45:09;18.83;;;4.63;;
66581;SDS011;53438;48.898;2.308;2022-11-20T17:47:34;12.40;;;3.50;;
66581;SDS011;53438;48.898;2.308;2022-11-20T17:50:00;12.68;;;3.35;;
66581;SDS011;53438;48.898;2.308;2022-11-20T17:52:26;10.90;;;3.77;;
66581;SDS011;53438;48.898;2.308;2022-11-20T17:54:53;12.95;;;3.28;;
66581;SDS011;53438;48.898;2.308;2022-11-20T17:57:20;13.60;;;3.67;;
66581;SDS011;53438;48.898;2.308;2022-11-20T18:00:10;16.73;;;3.28;;
66581;SDS011;53438;48.898;2.308;2022-11-20T18:02:37;13.43;;;2.40;;
66581;SDS011;53438;48.898;2.308;2022-11-20T18:05:02;11.57;;;2.70;;
66581;SDS011;53438;48.898;2.308;2022-11-20T18:07:28;14.88;;;3.42;;
66581;SDS011;53438;48.898;2.308;2022-11-20T18:09:53;15.00;;;3.20;;
66581;SDS011;53438;48.898;2.308;2022-11-20T18:12:19;16.00;;;3.60;;
66581;SDS011;53438;48.898;2.308;2022-11-20T18:14:45;12.77;;;3.40;;
66581;SDS011;53438;48.898;2.308;2022-11-20T18:17:11;12.10;;;2.35;;
66581;SDS011;53438;48.898;2.308;2022-11-20T18:19:39;13.88;;;3.75;;
66581;SDS011;53438;48.898;2.308;2022-11-20T18:22:07;9.67;;;2.60;;
66581;SDS011;53438;48.898;2.308;2022-11-20T18:24:33;11.70;;;3.15;;
66581;SDS011;53438;48.898;2.308;2022-11-20T18:27:03;11.63;;;3.28;;
66581;SDS011;53438;48.898;2.308;2022-11-20T18:29:30;12.95;;;2.80;;
66581;SDS011;53438;48.898;2.308;2022-11-20T18:31:56;10.75;;;2.78;;
66581;SDS011;53438;48.898;2.308;2022-11-20T18:34:22;15.40;;;3.57;;
66581;SDS011;53438;48.898;2.308;2022-11-20T18:36:48;8.20;;;2.83;;
66581;SDS011;53438;48.898;2.308;2022-11-20T18:39:14;15.93;;;3.93;;
66581;SDS011;53438;48.898;2.308;2022-11-20T18:41:40;8.68;;;2.78;;
66581;SDS011;53438;48.898;2.308;2022-11-20T18:44:25;10.80;;;2.97;;
66581;SDS011;53438;48.898;2.308;2022-11-20T18:47:11;14.13;;;3.10;;
66581;SDS011;53438;48.898;2.308;2022-11-20T18:49:40;15.32;;;3.15;;
66581;SDS011;53438;48.898;2.308;2022-11-20T18:52:06;14.65;;;3.53;;
66581;SDS011;53438;48.898;2.308;2022-11-20T18:54:33;12.98;;;3.22;;
66581;SDS011;53438;48.898;2.308;2022-11-20T18:56:59;12.73;;;4.20;;
66581;SDS011;53438;48.898;2.308;2022-11-20T18:59:24;16.83;;;7.35;;
66581;SDS011;53438;48.898;2.308;2022-11-20T19:01:50;19.00;;;4.60;;
66581;SDS011;53438;48.898;2.308;2022-11-20T19:04:16;9.27;;;2.73;;
66581;SDS011;53438;48.898;2.308;2022-11-20T19:06:43;16.73;;;3.63;;
66581;SDS011;53438;48.898;2.308;2022-11-20T19:09:10;15.90;;;3.65;;
66581;SDS011;53438;48.898;2.308;2022-11-20T19:11:37;10.68;;;2.88;;
66581;SDS011;53438;48.898;2.308;2022-11-20T19:14:03;13.07;;;3.78;;
66581;SDS011;53438;48.898;2.308;2022-11-20T19:16:29;11.73;;;3.75;;
66581;SDS011;53438;48.898;2.308;2022-11-20T19:18:55;13.90;;;3.80;;
66581;SDS011;53438;48.898;2.308;2022-11-20T19:21:23;10.75;;;2.88;;
66581;SDS011;53438;48.898;2.308;2022-11-20T19:23:49;14.75;;;3.83;;
66581;SDS011;53438;48.898;2.308;2022-11-20T19:26:15;18.77;;;3.50;;
66581;SDS011;53438;48.898;2.308;2022-11-20T19:28:41;17.30;;;3.33;;
66581;SDS011;53438;48.898;2.308;2022-11-20T19:31:08;11.52;;;3.20;;